Participated 2 times
Between 2022 and 2023
Victor Lafay, France
Tour de France 2026 starts from Edinburgh, Scotland in

Stats and Facts from
Tour de France.

2026   2025   2024   2023  2022  2021  2020  2019   2018  2017   2016   2015  2014  2013   2012   2011  2010   2009   2008   2007   2006   2005   2004   2003   2002   2001   2000   1999   1998   1997  1996   1995   1994   1993   1992  1991   1990   1989   1988   1987   1986   1985   1984   1983  1982  1981   1980   1979  1978  1977   1976  1975  1974  1973   1972   1971   1970  1969   1968   1967   1966   1965  1964  1963   1962   1961   1960   1959   1958   1957  1956   1955   1954   1953   1952  1951  1950  1949   1948  1947  1939   1938   1937   1936   1935   1934   1933  1932   1931   1930  1929   1928   1927   1926  1925  1924  1923   1922   1921   1920   1919  1914   1913   1912   1911   1910  1909   1908   1907   1906  1905  1904   1903 

Tourstats
Sitemap

After stage 21 - 2026:
 16451 starters.
  5513 different riders.
  689 teams.
  2419 stages.
  470 restdays.
  469752.50 km.
  5946 abandoned riders.

Click map for 1956 route.
Facts from Tour de France 1956
  |   Stages.  |   Stage winners.  |   Days in jerseys.  |   Teams.  |   All riders.  |   All riders by age.  |   All riders from.  |  

  |   Rookies.  |   Withdrawls.  |   Average speed.  |   GC.  |   Polka  |   Green  |   White  |   Summits. (In tour)  |   Miscellaneous.  |  

Stage 15 on July 20th. 1956
Pick a stage:  1  2  3  4a  4b  5  6  7  8  9  10  11  12  13  14  15  16  17  18  19  20  21  22  

After stage 15:    Wout Wagtmans  
  MontpellierAix-en-Provence | Dist: 204.00km. | Winner: Joseph Thomin

Podium
3  La Vayede  Nino Defilippisafter104.00 km.


Average speed for all riders in stage:  40,059 km./hr.

1
 Joseph Thomin  Ouest05h 01' 10"=40,642  km/h

2
 Jean Forestier  France05h 01' 10"=40,642  km/h

3
 Pietro Giudici  Italy05h 01' 10"=40,642  km/h

4  Salvador Botella  Spain05h 01' 10"=40,642  km/h

5  Pierre Scribante  Nord Est-Centre05h 01' 10"=40,642  km/h

6  Pierre Barbotin  France05h 01' 10"=40,642  km/h

7  Arrigo Padovan  Italy05h 01' 24"+  00:00:14 =40,610  km/h

8  Stan Ockers  Belgium05h 01' 24"+  00:00:14 =40,610  km/h

9  Fernand Picot  Ouest05h 01' 24"+  00:00:14 =40,610  km/h

10  Adolphe Deledda  Nord Est-Centre05h 01' 24"+  00:00:14 =40,610  km/h

11  Albert Dolhats  Sud Ouest05h 01' 24"+  00:00:14 =40,610  km/h

12  Gerrit Voorting  Holland05h 01' 24"+  00:00:14 =40,610  km/h

13  Jan Nolten  Holland05h 01' 24"+  00:00:14 =40,610  km/h

14  André Darrigade  France05h 01' 24"+  00:00:14 =40,610  km/h

15  Maurice Quentin  Ouest05h 01' 24"+  00:00:14 =40,610  km/h

16  Nello Lauredi  Sud Est05h 01' 24"+  00:00:14 =40,610  km/h

17  Pierino Baffi  Italy05h 01' 24"+  00:00:14 =40,610  km/h

18  Federico Bahamontes  Spain05h 01' 24"+  00:00:14 =40,610  km/h

19  Louis Rostollan  France05h 01' 24"+  00:00:14 =40,610  km/h

20  Miguel Bover  Spain05h 01' 24"+  00:00:14 =40,610  km/h

21  Francis Siguenza  Île-de-France05h 01' 24"+  00:00:14 =40,610  km/h

22  Mario Bertolo  Nord Est-Centre05h 01' 24"+  00:00:14 =40,610  km/h

23  Vincent Vitetta  Sud Est05h 01' 24"+  00:00:14 =40,610  km/h

24  Pasquale Fornara  Italy05h 01' 24"+  00:00:14 =40,610  km/h

25  Alves Barbosa  Luxembourg05h 01' 24"+  00:00:14 =40,610  km/h

26  Jean Lerda  Sud Est05h 01' 24"+  00:00:14 =40,610  km/h

27  Roger Walkowiak  Nord Est-Centre05h 01' 24"+  00:00:14 =40,610  km/h

28  Charly Gaul  Luxembourg05h 01' 24"+  00:00:14 =40,610  km/h

29  Leo van Der Pluijm  Holland05h 01' 24"+  00:00:14 =40,610  km/h

30  Wout Wagtmans  Holland05h 01' 24"+  00:00:14 =40,610  km/h

31  René Privat  France05h 01' 24"+  00:00:14 =40,610  km/h

32  Nino Defilippis  Italy05h 01' 24"+  00:00:14 =40,610  km/h

33  Jean-Baptiste Dotto  Sud Est05h 01' 24"+  00:00:14 =40,610  km/h

34  Jean Brankart  Belgium05h 01' 24"+  00:00:14 =40,610  km/h

35  Louis Caput  Ouest05h 01' 24"+  00:00:14 =40,610  km/h

36  Gilbert Bauvin  France05h 01' 24"+  00:00:14 =40,610  km/h

37  Miguel Chacón  Spain05h 03' 54"+  00:02:44 =40,276  km/h

38  Brian Robinson  Luxembourg05h 03' 54"+  00:02:44 =40,276  km/h

39  Pierre Beuffeuil  Sud Ouest05h 03' 54"+  00:02:44 =40,276  km/h

40  Maurice Lampre  Sud Ouest05h 03' 54"+  00:02:44 =40,276  km/h

41  Raphaël Geminiani  France05h 03' 54"+  00:02:44 =40,276  km/h

42  Max Schellenberg  Switzerland05h 04' 12"+  00:03:02 =40,237  km/h

43  Roger Hassenforder  Ouest05h 04' 12"+  00:03:02 =40,237  km/h

44  Joseph Morvan  Ouest05h 04' 12"+  00:03:02 =40,237  km/h

45  Daniël de Groot  Holland05h 06' 19"+  00:05:09 =39,959  km/h

46  René Marigil  Spain05h 06' 19"+  00:05:09 =39,959  km/h

47  Gastone Nencini  Italy05h 07' 35"+  00:06:25 =39,794  km/h

48  Nicolas Morn  Luxembourg05h 07' 35"+  00:06:25 =39,794  km/h

49  Carmelo Morales  Spain05h 07' 35"+  00:06:25 =39,794  km/h

50  Aldo Bolzan  Luxembourg05h 07' 35"+  00:06:25 =39,794  km/h

51  Jean-Claude Grèt  Switzerland05h 07' 35"+  00:06:25 =39,794  km/h

52  Werner Arnold  Switzerland05h 07' 35"+  00:06:25 =39,794  km/h

53  Armand Audaire  Ouest05h 07' 35"+  00:06:25 =39,794  km/h

54  Bruno Monti  Italy05h 07' 35"+  00:06:25 =39,794  km/h

55  Angelo Conterno  Italy05h 07' 35"+  00:06:25 =39,794  km/h

56  Alfred Tonello  Île-de-France05h 07' 35"+  00:06:25 =39,794  km/h

57  Marcel Ernzer  Luxembourg05h 07' 35"+  00:06:25 =39,794  km/h

58  Raymond Impanis  Belgium05h 07' 35"+  00:06:25 =39,794  km/h

59  Willy Kemp  Luxembourg05h 07' 35"+  00:06:25 =39,794  km/h

60  Alexandre Close  Belgium05h 07' 35"+  00:06:25 =39,794  km/h

61  Jesus Loroño  Spain05h 07' 35"+  00:06:25 =39,794  km/h

62  Jean-Claude Skerl  Île-de-France05h 07' 35"+  00:06:25 =39,794  km/h

63  Robert Gibanel  Sud Ouest05h 07' 35"+  00:06:25 =39,794  km/h

64  Marcel Guitard  Sud Ouest05h 07' 35"+  00:06:25 =39,794  km/h

65  Roger Chupin  Nord Est-Centre05h 07' 35"+  00:06:25 =39,794  km/h

66  Agostino Coletto  Italy05h 07' 35"+  00:06:25 =39,794  km/h

67  Remo Pianezzi  Switzerland05h 07' 35"+  00:06:25 =39,794  km/h

68  Ernst Traxel  Switzerland05h 07' 35"+  00:06:25 =39,794  km/h

69  Nicolas Barone  Île-de-France05h 07' 35"+  00:06:25 =39,794  km/h

70  Giuseppe Mirando  Sud Est05h 07' 35"+  00:06:25 =39,794  km/h

71  Jef Lahaye  Holland05h 07' 35"+  00:06:25 =39,794  km/h

72  Claude Frei  Switzerland05h 07' 35"+  00:06:25 =39,794  km/h

73  José Serra Gil  Spain05h 07' 35"+  00:06:25 =39,794  km/h

74  Bernardo Ruíz  Spain05h 07' 35"+  00:06:25 =39,794  km/h

75  Jean-Pierre Schmitz  Luxembourg05h 07' 35"+  00:06:25 =39,794  km/h

76  Raymond Meyzenq  Sud Est05h 07' 35"+  00:06:25 =39,794  km/h

77  Gilbert Scodeller  Nord Est-Centre05h 07' 35"+  00:06:25 =39,794  km/h

78  Claude Le Ber  Ouest05h 08' 59"+  00:07:49 =39,614  km/h

79  Richard Van Genechten  Belgium05h 09' 56"+  00:08:46 =39,492  km/h

80  Jan Adriaensens  Belgium05h 09' 56"+  00:08:46 =39,492  km/h

81  Fred De Bruyne  Belgium05h 09' 56"+  00:08:46 =39,492  km/h

82  Raymond Hoorelbeke  Île-de-France05h 09' 56"+  00:08:46 =39,492  km/h

83  Camille Huyghe  Nord Est-Centre05h 09' 56"+  00:08:46 =39,492  km/h

84  Gilbert Desmet 1  Belgium05h 09' 56"+  00:08:46 =39,492  km/h

85  Valentin Huot  Sud Ouest05h 09' 56"+  00:08:46 =39,492  km/h

86  Ugo Anzile  Nord Est-Centre05h 09' 56"+  00:08:46 =39,492  km/h

87  Jean Le Guilly  Île-de-France05h 09' 56"+  00:08:46 =39,492  km/h

88  Philippe Agut  Sud Ouest05h 09' 56"+  00:08:46 =39,492  km/h

89  Jacques Vivier  Sud Ouest05h 09' 56"+  00:08:46 =39,492  km/h

90  Marcel Janssens  Belgium05h 10' 50"+  00:09:40 =39,378  km/h

91  Jean Malléjac  France05h 13' 34"+  00:12:24 =39,035  km/h

92  Alessandro Fantini  Italy05h 13' 34"+  00:12:24 =39,035  km/h

93  Louis Bergaud  France05h 13' 34"+  00:12:24 =39,035  km/h

94  Roger Chaussabel  Sud Est05h 14' 11"+  00:13:01 =38,958  km/h

95  Raymond Elena  Sud Est05h 14' 11"+  00:13:01 =38,958  km/h


Withdrawls: 2
 RiderTeamReason
30   André Vlayen BelgiumDid not finish
32   Jos Hinsen HollandDid not finish
Todays birthdays.

1887 • Paul Lepine
1897 • Léon Van Aken
1898 • Mario Vendruscolo
1913 • Maurice Cacheux
1913 • Gustave Danneels
1913 • Franz Dunder
1919 • René Desmet
1926 • Henri Van Kerckhove
1927 • Joseph Verhaert
1934 • Michel Vermeulin
1934 • Jan Westdorp
1939 • Guerrando Lenzi
1943 • Tony Houbrechts
1953 • Gianbattista Baronchelli
1956 • Per Bausager
1957 • Patrick Bonnet
1983 • Dimitri Champion
1984 • Thomas Dekker
1987 • Yoann Bagot
1987 • Jacques Janse Van Rensburg
1993 • Jack Haig

 

Optimized for Chrome - Edge
and Opera browsers.